createdAt,value
2018-09-30T00:01:36.440Z,54.70
2018-09-30T00:04:06.386Z,55.70
2018-09-30T00:06:35.926Z,55.20
2018-09-30T00:09:06.548Z,54.90
2018-09-30T00:11:36.129Z,55.50
2018-09-30T00:14:05.938Z,55.60
2018-09-30T00:16:35.451Z,56.00
2018-09-30T00:19:06.129Z,55.50
2018-09-30T00:21:35.678Z,56.10
2018-09-30T00:24:05.549Z,55.30
2018-09-30T00:29:32.251Z,53.80
2018-09-30T00:32:01.959Z,54.10
2018-09-30T00:34:31.568Z,53.80
2018-09-30T00:37:01.792Z,54.30
2018-09-30T00:39:31.605Z,53.80
2018-09-30T00:42:02.579Z,54.00
2018-09-30T00:44:32.155Z,52.90
2018-09-30T00:47:01.801Z,52.60
2018-09-30T00:49:32.153Z,53.40
2018-09-30T00:52:02.109Z,53.00
2018-09-30T00:54:31.691Z,52.90
2018-09-30T00:57:01.101Z,52.40
2018-09-30T00:59:30.725Z,52.90
2018-09-30T01:02:00.381Z,52.30
2018-09-30T01:04:30.711Z,53.00
2018-09-30T01:07:00.458Z,53.00
2018-09-30T01:09:30.258Z,53.10
2018-09-30T01:11:59.706Z,53.30
2018-09-30T01:14:29.361Z,54.30
2018-09-30T01:16:58.867Z,54.00
2018-09-30T01:19:29.616Z,53.80
2018-09-30T01:21:59.042Z,53.70
2018-09-30T01:24:28.771Z,54.10
2018-09-30T01:26:58.288Z,54.20
2018-09-30T01:29:27.458Z,54.70
2018-09-30T01:31:57.065Z,54.40
2018-09-30T01:34:26.692Z,54.90
2018-09-30T01:36:56.108Z,55.30
2018-09-30T01:39:25.565Z,57.00
2018-09-30T01:41:55.173Z,56.80
2018-09-30T01:44:24.779Z,57.00
2018-09-30T01:46:54.512Z,56.20
2018-09-30T01:49:23.871Z,55.10
2018-09-30T01:51:54.057Z,54.60
2018-09-30T01:54:23.504Z,54.80
2018-09-30T01:56:53.113Z,55.80
2018-09-30T01:59:23.732Z,54.70
2018-09-30T02:01:54.320Z,55.40
2018-09-30T02:04:25.099Z,55.30
2018-09-30T02:06:55.539Z,57.10
2018-09-30T02:09:25.388Z,57.10
2018-09-30T02:11:54.873Z,57.60
2018-09-30T02:14:24.408Z,60.00
2018-09-30T02:16:54.119Z,63.20
2018-09-30T02:19:23.713Z,65.30
2018-09-30T02:21:53.280Z,68.10
2018-09-30T02:24:26.403Z,70.40
2018-09-30T02:26:55.909Z,70.30
2018-09-30T02:29:25.397Z,71.50
2018-09-30T02:31:54.923Z,73.10
2018-09-30T02:34:24.556Z,74.90
2018-09-30T02:36:54.263Z,75.60
2018-09-30T02:39:23.944Z,76.50
2018-09-30T02:41:53.290Z,77.30
2018-09-30T02:44:24.071Z,79.70
2018-09-30T02:46:53.439Z,79.70
2018-09-30T02:49:23.261Z,80.00
2018-09-30T02:51:53.804Z,81.20
2018-09-30T02:54:23.404Z,81.10
2018-09-30T02:56:52.881Z,80.80
2018-09-30T02:59:22.367Z,81.90
2018-09-30T03:01:52.732Z,82.00
2018-09-30T03:04:23.492Z,81.30
2018-09-30T03:06:54.159Z,81.80
2018-09-30T03:09:24.781Z,82.50
2018-09-30T03:11:55.190Z,82.50
2018-09-30T03:14:24.874Z,82.70
2018-09-30T03:16:54.716Z,82.70
2018-09-30T03:19:24.105Z,82.30
2018-09-30T03:21:53.618Z,82.70
2018-09-30T03:24:23.375Z,82.90
2018-09-30T03:26:53.644Z,82.60
2018-09-30T03:29:22.968Z,82.60
2018-09-30T03:31:52.583Z,81.90
2018-09-30T03:34:22.713Z,83.20
2018-09-30T03:36:52.365Z,83.10
2018-09-30T03:39:22.219Z,82.60
2018-09-30T03:41:51.910Z,83.70
2018-09-30T03:44:23.027Z,83.60
2018-09-30T03:46:52.772Z,83.30
2018-09-30T03:49:22.656Z,83.70
2018-09-30T03:51:52.101Z,84.30
2018-09-30T03:54:21.876Z,83.40
2018-09-30T03:56:52.867Z,83.50
2018-09-30T03:59:22.269Z,82.90
2018-09-30T04:01:53.184Z,82.70
2018-09-30T04:04:22.732Z,83.50
2018-09-30T04:06:52.230Z,82.60
2018-09-30T04:09:21.939Z,83.60
2018-09-30T04:11:51.788Z,83.10
2018-09-30T04:14:21.206Z,82.70
2018-09-30T04:16:50.957Z,83.80
2018-09-30T04:19:20.260Z,83.50
2018-09-30T04:21:49.917Z,83.90
2018-09-30T04:24:19.325Z,83.60
2018-09-30T04:26:49.044Z,83.60
2018-09-30T04:29:18.580Z,84.40
2018-09-30T04:31:48.149Z,84.00
2018-09-30T04:34:17.692Z,83.40
2018-09-30T04:36:48.151Z,82.90
2018-09-30T04:39:17.545Z,83.30
2018-09-30T04:41:47.268Z,82.80
2018-09-30T04:44:17.804Z,82.90
2018-09-30T04:46:48.160Z,82.10
2018-09-30T04:49:17.994Z,82.20
2018-09-30T04:51:48.090Z,81.40
2018-09-30T04:54:17.720Z,81.20
2018-09-30T04:56:47.194Z,81.10
2018-09-30T04:59:16.888Z,80.80
2018-09-30T05:01:47.365Z,81.30
2018-09-30T05:04:17.320Z,80.90
2018-09-30T05:06:46.751Z,80.80
2018-09-30T05:09:16.612Z,80.10
2018-09-30T05:11:46.279Z,80.80
2018-09-30T05:14:15.466Z,80.80
2018-09-30T05:16:45.939Z,80.90
2018-09-30T05:19:15.601Z,81.70
2018-09-30T05:21:45.587Z,81.20
2018-09-30T05:24:16.097Z,80.60
2018-09-30T05:26:45.676Z,81.00
2018-09-30T05:29:16.644Z,80.90
2018-09-30T05:31:46.111Z,81.00
2018-09-30T05:34:15.567Z,80.40
2018-09-30T05:36:46.053Z,80.80
2018-09-30T05:39:15.843Z,80.90
2018-09-30T05:41:46.345Z,81.00
2018-09-30T05:44:15.820Z,80.70
2018-09-30T05:46:46.184Z,80.60
2018-09-30T05:49:15.779Z,81.30
2018-09-30T05:51:45.426Z,80.70
2018-09-30T05:54:15.067Z,81.10
2018-09-30T05:56:44.926Z,80.70
2018-09-30T05:59:14.567Z,80.80
2018-09-30T06:01:45.393Z,81.40
2018-09-30T06:04:14.959Z,81.70
2018-09-30T06:06:44.601Z,82.70
2018-09-30T06:09:15.350Z,82.20
2018-09-30T06:11:45.082Z,83.30
2018-09-30T06:14:14.982Z,82.10
2018-09-30T06:16:44.674Z,82.30
2018-09-30T06:19:14.225Z,82.70
2018-09-30T06:21:43.747Z,83.80
2018-09-30T06:24:14.313Z,85.60
2018-09-30T06:26:44.099Z,84.80
2018-09-30T06:29:14.082Z,85.80
2018-09-30T06:31:43.655Z,85.80
2018-09-30T06:34:13.146Z,86.40
2018-09-30T06:36:42.716Z,86.10
2018-09-30T06:39:12.121Z,87.60
2018-09-30T06:41:41.981Z,86.80
2018-09-30T06:44:11.953Z,87.00
2018-09-30T06:46:43.436Z,87.10
2018-09-30T06:49:13.201Z,87.20
2018-09-30T06:51:42.731Z,87.60
2018-09-30T06:54:12.156Z,88.10
2018-09-30T06:56:41.649Z,87.20
2018-09-30T06:59:11.400Z,86.70
2018-09-30T07:01:40.811Z,85.90
2018-09-30T07:04:10.453Z,85.80
2018-09-30T07:06:40.034Z,85.10
2018-09-30T07:09:09.794Z,85.60
2018-09-30T07:11:39.221Z,85.40
2018-09-30T07:14:09.282Z,86.00
2018-09-30T07:16:38.896Z,86.10
2018-09-30T07:19:08.347Z,86.60
2018-09-30T07:21:37.742Z,86.60
2018-09-30T07:24:08.323Z,86.40
2018-09-30T07:26:37.938Z,86.90
2018-09-30T07:29:07.886Z,86.70
2018-09-30T07:31:37.416Z,86.60
2018-09-30T07:34:06.823Z,87.40
2018-09-30T07:36:36.667Z,87.70
2018-09-30T07:39:06.981Z,88.40
2018-09-30T07:41:37.819Z,88.30
2018-09-30T07:44:07.278Z,88.30
2018-09-30T07:46:36.655Z,89.00
2018-09-30T07:49:06.309Z,88.30
2018-09-30T07:51:36.612Z,88.90
2018-09-30T07:54:06.029Z,88.70
2018-09-30T07:56:36.108Z,88.90
2018-09-30T07:59:06.984Z,89.10
2018-09-30T08:01:36.383Z,89.20
2018-09-30T08:04:06.833Z,88.50
2018-09-30T08:06:36.575Z,88.40
2018-09-30T08:09:06.418Z,89.10
2018-09-30T08:11:35.849Z,88.70
2018-09-30T08:14:05.268Z,88.20
2018-09-30T08:16:35.878Z,87.60
2018-09-30T08:19:05.836Z,87.10
2018-09-30T08:21:35.760Z,88.40
2018-09-30T08:24:05.260Z,87.50
2018-09-30T08:26:35.219Z,87.90
2018-09-30T08:29:05.424Z,88.40
2018-09-30T08:31:35.095Z,88.40
2018-09-30T08:34:05.171Z,89.30
2018-09-30T08:36:35.051Z,89.80
2018-09-30T08:39:05.334Z,89.50
2018-09-30T08:41:36.144Z,90.00
2018-09-30T08:44:07.583Z,90.00
2018-09-30T08:46:37.160Z,90.10
2018-09-30T08:49:06.861Z,90.20
2018-09-30T08:51:36.496Z,90.40
2018-09-30T08:54:06.198Z,90.30
2018-09-30T08:56:36.731Z,90.40
2018-09-30T08:59:07.573Z,90.80
2018-09-30T09:01:37.708Z,90.90
2018-09-30T09:04:08.558Z,90.90
2018-09-30T09:06:38.608Z,91.00
2018-09-30T09:09:08.094Z,91.00
2018-09-30T09:11:37.663Z,91.00
2018-09-30T09:14:07.145Z,91.00
2018-09-30T09:16:36.963Z,91.30
2018-09-30T09:19:07.392Z,91.60
2018-09-30T09:21:37.176Z,91.60
2018-09-30T09:24:06.730Z,91.60
2018-09-30T09:26:36.294Z,91.60
2018-09-30T09:29:05.863Z,91.60
2018-09-30T09:31:35.538Z,91.70
2018-09-30T09:34:05.945Z,92.20
2018-09-30T09:36:35.638Z,92.20
2018-09-30T09:39:06.678Z,92.30
2018-09-30T09:41:36.404Z,92.40
2018-09-30T09:44:05.780Z,92.40
2018-09-30T09:46:35.233Z,92.20
2018-09-30T09:49:04.849Z,92.30
2018-09-30T09:51:34.375Z,92.70
2018-09-30T09:54:03.777Z,92.50
2018-09-30T09:56:33.497Z,93.00
2018-09-30T09:59:02.985Z,93.20
2018-09-30T10:01:33.006Z,93.00
2018-09-30T10:04:02.724Z,92.90
2018-09-30T10:06:32.715Z,92.80
2018-09-30T10:09:03.348Z,92.80
2018-09-30T10:11:33.613Z,92.80
2018-09-30T10:14:03.183Z,92.80
2018-09-30T10:16:32.642Z,92.70
2018-09-30T10:19:02.138Z,92.80
2018-09-30T10:21:32.428Z,92.70
2018-09-30T10:24:02.273Z,93.10
2018-09-30T10:26:32.366Z,93.10
2018-09-30T10:29:02.800Z,93.10
2018-09-30T10:31:32.475Z,93.20
2018-09-30T10:34:01.995Z,93.30
2018-09-30T10:36:31.988Z,93.10
2018-09-30T10:39:02.080Z,93.00
2018-09-30T10:41:32.019Z,92.60
2018-09-30T10:44:01.624Z,92.90
2018-09-30T10:46:31.088Z,93.00
2018-09-30T10:49:00.640Z,93.40
2018-09-30T10:51:30.194Z,93.30
2018-09-30T10:53:59.942Z,93.30
2018-09-30T10:56:29.490Z,93.50
2018-09-30T10:58:58.931Z,93.40
2018-09-30T11:01:28.293Z,93.20
2018-09-30T11:03:58.899Z,92.90
2018-09-30T11:06:28.202Z,93.20
2018-09-30T11:09:00.096Z,93.60
2018-09-30T11:11:29.915Z,93.70
2018-09-30T11:13:59.459Z,93.70
2018-09-30T11:16:29.112Z,93.70
2018-09-30T11:18:58.959Z,93.80
2018-09-30T11:21:28.566Z,93.70
2018-09-30T11:23:58.250Z,93.80
2018-09-30T11:26:28.805Z,93.60
2018-09-30T11:28:58.454Z,93.80
2018-09-30T11:31:28.979Z,93.90
2018-09-30T11:33:59.801Z,93.80
2018-09-30T11:36:29.455Z,94.10
2018-09-30T11:38:59.282Z,93.90
2018-09-30T11:41:28.995Z,94.00
2018-09-30T11:43:58.585Z,94.00
2018-09-30T11:46:28.030Z,94.10
2018-09-30T11:48:58.407Z,93.90
2018-09-30T11:51:27.989Z,93.70
2018-09-30T11:53:58.475Z,93.70
2018-09-30T11:56:28.054Z,93.50
2018-09-30T11:58:57.575Z,93.80
2018-09-30T12:01:27.201Z,94.00
2018-09-30T12:03:57.778Z,93.90
2018-09-30T12:06:27.313Z,93.90
2018-09-30T12:08:58.926Z,93.90
2018-09-30T12:11:28.669Z,93.70
2018-09-30T12:13:59.956Z,93.40
2018-09-30T12:16:29.601Z,94.20
2018-09-30T12:19:00.066Z,94.00
2018-09-30T12:21:29.444Z,93.70
2018-09-30T12:23:59.261Z,93.80
2018-09-30T12:26:28.952Z,93.80
2018-09-30T12:28:59.407Z,94.10
2018-09-30T12:31:29.125Z,94.10
2018-09-30T12:33:58.582Z,94.10
2018-09-30T12:36:28.688Z,93.80
2018-09-30T12:38:58.231Z,94.00
2018-09-30T12:41:28.242Z,94.20
2018-09-30T12:43:58.024Z,94.10
2018-09-30T12:46:27.977Z,94.00
2018-09-30T12:48:57.283Z,94.10
2018-09-30T12:51:27.974Z,93.90
2018-09-30T12:53:57.901Z,93.90
2018-09-30T12:56:27.682Z,93.90
2018-09-30T12:58:58.714Z,93.90
2018-09-30T13:01:29.034Z,93.70
2018-09-30T13:03:58.756Z,94.10
2018-09-30T13:06:28.504Z,94.20
2018-09-30T13:08:57.946Z,94.30
2018-09-30T13:11:28.374Z,94.20
2018-09-30T13:13:58.643Z,94.30
2018-09-30T13:16:28.261Z,94.10
2018-09-30T13:18:58.970Z,94.40
2018-09-30T13:21:28.469Z,94.30
2018-09-30T13:23:58.005Z,94.10
2018-09-30T13:26:27.313Z,94.20
2018-09-30T13:28:57.013Z,94.10
2018-09-30T13:31:26.705Z,94.10
2018-09-30T13:33:56.381Z,94.20
2018-09-30T13:36:25.705Z,94.30
2018-09-30T13:38:55.275Z,94.70
2018-09-30T13:41:24.914Z,94.80
2018-09-30T13:43:55.009Z,94.80
2018-09-30T13:46:24.932Z,94.40
2018-09-30T13:48:54.428Z,94.90
2018-09-30T13:51:24.288Z,94.70
2018-09-30T13:53:53.799Z,94.40
2018-09-30T13:56:24.390Z,94.60
2018-09-30T13:58:53.859Z,94.80
2018-09-30T14:01:23.369Z,94.90
2018-09-30T14:03:52.785Z,94.70
2018-09-30T14:06:22.424Z,94.60
2018-09-30T14:08:51.915Z,94.70
2018-09-30T14:11:21.644Z,94.70
2018-09-30T14:13:51.297Z,94.70
2018-09-30T14:16:21.785Z,94.70
2018-09-30T14:18:51.540Z,94.70
2018-09-30T14:21:21.620Z,94.40
2018-09-30T14:23:51.589Z,94.70
2018-09-30T14:26:22.204Z,94.60
2018-09-30T14:28:51.973Z,94.60
2018-09-30T14:31:22.881Z,94.70
2018-09-30T14:33:53.119Z,94.40
2018-09-30T14:36:22.777Z,94.70
2018-09-30T14:38:53.232Z,94.60
2018-09-30T14:41:23.378Z,94.40
2018-09-30T14:43:54.096Z,94.60
2018-09-30T14:46:23.779Z,94.90
2018-09-30T14:48:53.373Z,95.50
2018-09-30T14:51:22.905Z,95.50
2018-09-30T14:53:53.642Z,95.40
2018-09-30T14:56:23.543Z,95.40
2018-09-30T14:58:53.892Z,95.30
2018-09-30T15:01:23.444Z,95.30
2018-09-30T15:03:53.891Z,95.60
2018-09-30T15:06:24.128Z,95.70
2018-09-30T15:08:54.527Z,95.40
2018-09-30T15:11:24.353Z,95.40
2018-09-30T15:13:53.747Z,95.00
2018-09-30T15:16:23.343Z,95.50
2018-09-30T15:18:53.913Z,95.60
2018-09-30T15:21:25.682Z,95.70
2018-09-30T15:23:55.205Z,95.60
2018-09-30T15:26:25.213Z,95.60
2018-09-30T15:28:54.929Z,95.40
2018-09-30T15:31:24.277Z,94.90
2018-09-30T15:33:53.625Z,94.80
2018-09-30T15:36:23.041Z,95.30
2018-09-30T15:38:53.230Z,95.00
2018-09-30T15:41:23.011Z,95.30
2018-09-30T15:43:52.747Z,95.50
2018-09-30T15:46:22.388Z,95.50
2018-09-30T15:48:51.919Z,95.90
2018-09-30T15:51:21.209Z,95.80
2018-09-30T15:53:51.023Z,95.70
2018-09-30T15:56:20.648Z,95.50
2018-09-30T15:58:50.059Z,95.20
2018-09-30T16:01:19.756Z,95.40
2018-09-30T16:03:49.315Z,95.40
2018-09-30T16:06:18.856Z,95.30
2018-09-30T16:08:48.361Z,95.30
2018-09-30T16:11:18.635Z,95.00
2018-09-30T16:13:48.508Z,95.30
2018-09-30T16:16:18.837Z,95.50
2018-09-30T16:18:48.472Z,95.40
2018-09-30T16:21:18.968Z,95.50
2018-09-30T16:23:48.573Z,95.60
2018-09-30T16:26:18.053Z,95.50
2018-09-30T16:28:47.497Z,95.60
2018-09-30T16:31:17.070Z,95.70
2018-09-30T16:33:47.070Z,95.30
2018-09-30T16:36:16.715Z,95.50
2018-09-30T16:38:46.639Z,95.40
2018-09-30T16:41:16.386Z,95.50
2018-09-30T16:43:46.230Z,95.30
2018-09-30T16:46:15.924Z,95.40
2018-09-30T16:48:45.693Z,95.50
2018-09-30T16:51:15.567Z,95.20
2018-09-30T16:53:45.167Z,95.50
2018-09-30T16:56:14.536Z,95.30
2018-09-30T16:58:44.964Z,95.50
2018-09-30T17:01:14.617Z,95.50
2018-09-30T17:03:44.200Z,95.70
2018-09-30T17:06:13.746Z,95.50
2018-09-30T17:08:43.133Z,95.50
2018-09-30T17:11:12.677Z,95.40
2018-09-30T17:13:42.265Z,95.40
2018-09-30T17:16:11.864Z,95.60
2018-09-30T17:18:41.389Z,95.30
2018-09-30T17:21:11.641Z,95.20
2018-09-30T17:23:41.844Z,95.80
2018-09-30T17:26:12.262Z,95.70
2018-09-30T17:28:41.624Z,95.70
2018-09-30T17:31:11.182Z,95.80
2018-09-30T17:33:41.488Z,95.90
2018-09-30T17:36:11.006Z,95.80
2018-09-30T17:38:40.626Z,95.50
2018-09-30T17:41:10.564Z,95.90
2018-09-30T17:43:40.049Z,95.70
2018-09-30T17:46:09.702Z,95.50
2018-09-30T17:48:40.652Z,95.60
2018-09-30T17:51:10.997Z,95.40
2018-09-30T17:53:40.351Z,95.70
2018-09-30T17:56:09.783Z,96.30
2018-09-30T17:58:40.147Z,95.80
2018-09-30T18:01:10.010Z,95.60
2018-09-30T18:03:39.719Z,96.00
2018-09-30T18:06:09.346Z,96.30
2018-09-30T18:08:38.662Z,96.20
2018-09-30T18:11:10.312Z,95.60
2018-09-30T18:13:40.101Z,95.60
2018-09-30T18:16:09.626Z,96.30
2018-09-30T18:18:39.213Z,96.10
2018-09-30T18:21:08.516Z,96.60
2018-09-30T18:23:38.175Z,96.60
2018-09-30T18:26:08.570Z,96.00
2018-09-30T18:28:41.056Z,96.00
2018-09-30T18:31:10.927Z,96.40
2018-09-30T18:33:41.567Z,96.70
2018-09-30T18:36:11.336Z,96.50
2018-09-30T18:38:40.988Z,96.50
2018-09-30T18:41:10.444Z,96.10
2018-09-30T18:43:40.254Z,96.70
2018-09-30T18:46:11.151Z,96.90
2018-09-30T18:48:40.652Z,96.90
2018-09-30T18:51:10.191Z,96.20
2018-09-30T18:53:39.833Z,96.80
2018-09-30T18:56:09.462Z,96.70
2018-09-30T18:58:40.151Z,96.30
2018-09-30T19:01:10.023Z,96.30
2018-09-30T19:03:39.786Z,96.00
2018-09-30T19:06:09.339Z,96.20
2018-09-30T19:08:38.811Z,96.30
2018-09-30T19:11:08.850Z,95.90
2018-09-30T19:13:38.513Z,95.80
2018-09-30T19:16:08.177Z,96.10
2018-09-30T19:18:37.696Z,96.10
2018-09-30T19:21:07.293Z,95.70
2018-09-30T19:23:36.754Z,96.20
2018-09-30T19:26:06.997Z,96.00
2018-09-30T19:28:36.384Z,96.00
2018-09-30T19:31:06.130Z,96.30
2018-09-30T19:33:35.675Z,96.10
2018-09-30T19:36:05.394Z,96.10
2018-09-30T19:38:35.735Z,95.70
2018-09-30T19:41:05.457Z,95.70
2018-09-30T19:43:34.963Z,95.70
2018-09-30T19:46:05.500Z,95.60
2018-09-30T19:48:35.547Z,96.10
2018-09-30T19:51:05.224Z,96.00
2018-09-30T19:53:34.807Z,96.10
2018-09-30T19:56:05.290Z,95.90
2018-09-30T19:58:34.845Z,95.90
2018-09-30T20:01:04.770Z,95.80
2018-09-30T20:03:34.461Z,96.00
2018-09-30T20:06:05.061Z,96.40
2018-09-30T20:08:34.580Z,96.40
2018-09-30T20:11:04.893Z,96.10
2018-09-30T20:13:34.422Z,96.20
2018-09-30T20:16:04.005Z,96.10
2018-09-30T20:18:33.930Z,96.00
2018-09-30T20:21:03.293Z,96.20
2018-09-30T20:23:32.616Z,96.10
2018-09-30T20:26:03.097Z,96.30
2018-09-30T20:28:32.520Z,96.00
2018-09-30T20:31:02.184Z,96.10
2018-09-30T20:33:31.812Z,95.30
2018-09-30T20:36:01.684Z,95.90
2018-09-30T20:38:31.254Z,96.00
2018-09-30T20:41:01.413Z,96.10
2018-09-30T20:43:31.405Z,95.90
2018-09-30T20:46:00.964Z,95.90
2018-09-30T20:48:30.636Z,95.90
2018-09-30T20:51:01.952Z,96.10
2018-09-30T20:53:31.437Z,96.10
2018-09-30T20:56:01.446Z,96.00
2018-09-30T20:58:32.066Z,96.10
2018-09-30T21:01:02.974Z,95.40
2018-09-30T21:03:32.614Z,95.50
2018-09-30T21:06:03.449Z,95.10
2018-09-30T21:08:33.144Z,95.90
2018-09-30T21:11:03.011Z,95.90
2018-09-30T21:13:32.524Z,96.30
2018-09-30T21:16:02.291Z,96.00
2018-09-30T21:18:32.625Z,96.20
2018-09-30T21:21:02.471Z,96.20
2018-09-30T21:23:32.012Z,96.20
2018-09-30T21:26:01.597Z,95.90
2018-09-30T21:28:33.018Z,96.00
2018-09-30T21:31:03.234Z,95.90
2018-09-30T21:33:33.480Z,95.80
2018-09-30T21:36:03.018Z,95.80
2018-09-30T21:38:32.592Z,95.80
2018-09-30T21:41:03.225Z,96.50
2018-09-30T21:43:33.239Z,96.40
2018-09-30T21:46:02.658Z,96.70
2018-09-30T21:48:32.113Z,96.70
2018-09-30T21:51:02.474Z,96.70
2018-09-30T21:53:32.260Z,96.70
2018-09-30T21:56:03.563Z,96.90
2018-09-30T21:58:33.145Z,96.90
2018-09-30T22:01:03.779Z,96.70
2018-09-30T22:03:34.118Z,97.10
2018-09-30T22:06:04.848Z,97.10
2018-09-30T22:08:34.238Z,97.10
2018-09-30T22:11:04.154Z,98.00
2018-09-30T22:13:33.791Z,97.60
2018-09-30T22:16:03.579Z,98.10
2018-09-30T22:18:34.713Z,97.70
2018-09-30T22:21:04.477Z,97.70
2018-09-30T22:23:34.059Z,98.40
2018-09-30T22:26:03.359Z,98.50
2018-09-30T22:28:32.847Z,98.80
2018-09-30T22:31:03.173Z,98.50
2018-09-30T22:33:32.667Z,98.50
2018-09-30T22:36:02.870Z,98.50
2018-09-30T22:38:34.528Z,98.20
2018-09-30T22:41:03.848Z,98.10
2018-09-30T22:43:33.522Z,98.10
2018-09-30T22:46:04.938Z,98.30
2018-09-30T22:48:34.609Z,97.90
2018-09-30T22:51:04.303Z,97.90
2018-09-30T22:53:34.004Z,98.00
2018-09-30T22:56:05.825Z,98.20
2018-09-30T22:58:35.470Z,98.10
2018-09-30T23:01:05.076Z,98.10
2018-09-30T23:03:34.666Z,97.80
2018-09-30T23:06:04.551Z,98.10
2018-09-30T23:08:35.255Z,97.70
2018-09-30T23:11:04.657Z,97.70
2018-09-30T23:13:34.322Z,97.80
2018-09-30T23:16:03.917Z,97.90
2018-09-30T23:18:33.705Z,97.90
2018-09-30T23:21:03.198Z,98.10
2018-09-30T23:23:33.008Z,98.10
2018-09-30T23:26:02.697Z,97.40
2018-09-30T23:28:32.180Z,97.70
2018-09-30T23:31:01.853Z,97.70
2018-09-30T23:33:31.699Z,97.40
2018-09-30T23:36:01.240Z,97.40
2018-09-30T23:38:30.713Z,97.70
2018-09-30T23:41:01.577Z,97.80
2018-09-30T23:43:31.859Z,97.40
2018-09-30T23:46:01.409Z,97.70
2018-09-30T23:48:31.012Z,97.60
2018-09-30T23:51:00.792Z,97.70
2018-09-30T23:53:30.785Z,97.30
2018-09-30T23:56:00.566Z,97.60
2018-09-30T23:58:30.935Z,97.70
